This is the latest recevied weather packets stored in our database for station/object WX7FGZ-7. If no packets are shown the sender has not sent any weather packets the latest 10 day(s).
| Time | Temp. | Humidity | Pressure | Rain* | Wind** | Luminosity | Snow |
|---|---|---|---|---|---|---|---|
| 1778022204 | 16.11° C | 34% | 1009.7 hPa | 0 mm | - | - | - |
| 1778021905 | 16.11° C | 35% | 1009.6 hPa | 0 mm | - | - | - |
| 1778021313 | 16.67° C | 33% | 1010.7 hPa | 0 mm | - | - | - |
| 1778020841 | 16.67° C | 33% | 1010.6 hPa | 0 mm | - | - | - |
| 1778020703 | 16.67° C | 33% | 1010.6 hPa | 0 mm | - | - | - |
| 1778019921 | 16.67° C | 33% | 1010.6 hPa | 0 mm | - | - | - |
| 1778019803 | 16.67° C | 33% | 1010.6 hPa | 0 mm | - | - | - |
| 1778019709 | 16.67° C | 32% | 1010.7 hPa | 0 mm | - | - | - |
| 1778019503 | 16.67° C | 32% | 1010.7 hPa | 0 mm | - | - | - |
| 1778018013 | 18.33° C | 26% | 1010.4 hPa | 0 mm | - | - | - |
| 1778017768 | 20° C | 24% | 1010.5 hPa | 0 mm | - | - | - |
| 1778017712 | 20° C | 24% | 1010.5 hPa | 0 mm | - | - | - |
| 1778016818 | 20° C | 24% | 1010.6 hPa | 0 mm | - | - | - |
| 1778015903 | 20° C | 24% | 1010.7 hPa | 0 mm | - | - | - |
| 1778015616 | 20° C | 22% | 1010.5 hPa | 0 mm | - | - | - |
| 1778015003 | 20.56° C | 22% | 1010.8 hPa | 0 mm | - | - | - |
| 1778013203 | 20° C | 25% | 1011.2 hPa | 0 mm | - | - | - |
| 1778012909 | 21.11° C | 23% | 1011.2 hPa | 0 mm | - | - | - |
| 1778012613 | 20.56° C | 25% | 1011.3 hPa | 0 mm | - | - | - |
| 1778012012 | 19.44° C | 26% | 1011.5 hPa | 0 mm | - | - | - |
| 1778011712 | 20° C | 24% | 1011.5 hPa | 0 mm | - | - | - |
| 1778011245 | 21.11° C | 25% | 1011.6 hPa | 0 mm | - | - | - |
| 1778011129 | 21.11° C | 25% | 1011.6 hPa | 0 mm | - | - | - |
| 1778009164 | 20° C | 27% | 1012.2 hPa | 0 mm | - | - | - |
| 1778009009 | 20° C | 27% | 1012.2 hPa | 0 mm | - | - | - |
* Rain latest hour (hover to see other rain measurements)
** Current wind speed in m/s (hover to see current wind gust speed)